sensor_id;sensor_type;location;lat;lon;timestamp;pressure;altitude;pressure_sealevel;temperature;humidity
39773;BME280;25451;51.960;6.250;2023-09-19T00:01:17;100579.41;;;17.08;77.68
39773;BME280;25451;51.960;6.250;2023-09-19T00:03:45;100575.81;;;17.08;77.67
39773;BME280;25451;51.960;6.250;2023-09-19T00:06:10;100576.38;;;17.05;77.49
39773;BME280;25451;51.960;6.250;2023-09-19T00:08:35;100571.69;;;17.00;77.59
39773;BME280;25451;51.960;6.250;2023-09-19T00:11:01;100569.97;;;17.04;77.55
39773;BME280;25451;51.960;6.250;2023-09-19T00:13:28;100558.59;;;17.01;77.44
39773;BME280;25451;51.960;6.250;2023-09-19T00:15:53;100566.94;;;17.01;77.58
39773;BME280;25451;51.960;6.250;2023-09-19T00:18:20;100575.31;;;17.01;77.61
39773;BME280;25451;51.960;6.250;2023-09-19T00:20:47;100585.28;;;17.07;77.61
39773;BME280;25451;51.960;6.250;2023-09-19T00:23:16;100585.28;;;17.07;77.83
39773;BME280;25451;51.960;6.250;2023-09-19T00:25:42;100572.00;;;16.99;77.67
39773;BME280;25451;51.960;6.250;2023-09-19T00:28:08;100590.88;;;17.07;77.71
39773;BME280;25451;51.960;6.250;2023-09-19T00:30:36;100592.00;;;17.06;77.78
39773;BME280;25451;51.960;6.250;2023-09-19T00:33:04;100596.22;;;17.03;77.76
39773;BME280;25451;51.960;6.250;2023-09-19T00:35:31;100594.84;;;17.01;77.76
39773;BME280;25451;51.960;6.250;2023-09-19T00:37:56;100589.59;;;16.94;77.92
39773;BME280;25451;51.960;6.250;2023-09-19T00:40:22;100606.22;;;17.04;77.98
39773;BME280;25451;51.960;6.250;2023-09-19T00:42:48;100607.38;;;17.03;77.73
39773;BME280;25451;51.960;6.250;2023-09-19T00:45:16;100604.56;;;17.03;77.88
39773;BME280;25451;51.960;6.250;2023-09-19T00:47:50;100608.47;;;17.02;77.82
39773;BME280;25451;51.960;6.250;2023-09-19T00:50:18;100607.41;;;16.98;77.82
39773;BME280;25451;51.960;6.250;2023-09-19T00:52:46;100608.00;;;16.95;77.93
39773;BME280;25451;51.960;6.250;2023-09-19T00:55:14;100612.69;;;17.00;77.70
39773;BME280;25451;51.960;6.250;2023-09-19T00:57:39;100606.91;;;16.91;77.81
39773;BME280;25451;51.960;6.250;2023-09-19T01:00:07;100617.75;;;16.98;77.76
39773;BME280;25451;51.960;6.250;2023-09-19T01:02:36;100605.00;;;16.87;77.82
39773;BME280;25451;51.960;6.250;2023-09-19T01:05:02;100627.22;;;16.97;77.75
39773;BME280;25451;51.960;6.250;2023-09-19T01:07:30;100625.56;;;16.96;77.76
39773;BME280;25451;51.960;6.250;2023-09-19T01:09:57;100614.75;;;16.89;77.75
39773;BME280;25451;51.960;6.250;2023-09-19T01:12:33;100630.59;;;16.94;77.61
39773;BME280;25451;51.960;6.250;2023-09-19T01:15:04;100630.63;;;16.89;77.73
39773;BME280;25451;51.960;6.250;2023-09-19T01:17:43;100621.72;;;16.87;77.81
39773;BME280;25451;51.960;6.250;2023-09-19T01:22:56;100612.34;;;16.78;77.76
39773;BME280;25451;51.960;6.250;2023-09-19T01:28:30;100635.41;;;16.83;77.63
39773;BME280;25451;51.960;6.250;2023-09-19T01:31:02;100625.16;;;16.74;77.73
39773;BME280;25451;51.960;6.250;2023-09-19T01:33:28;100645.50;;;16.79;77.75
39773;BME280;25451;51.960;6.250;2023-09-19T01:35:59;100639.94;;;16.74;77.89
39773;BME280;25451;51.960;6.250;2023-09-19T01:38:24;100637.44;;;16.73;77.77
39773;BME280;25451;51.960;6.250;2023-09-19T01:41:04;100621.63;;;16.63;77.43
39773;BME280;25451;51.960;6.250;2023-09-19T01:43:38;100644.66;;;16.74;77.62
39773;BME280;25451;51.960;6.250;2023-09-19T01:46:13;100632.81;;;16.58;77.96
39773;BME280;25451;51.960;6.250;2023-09-19T01:48:53;100655.88;;;16.69;77.72
39773;BME280;25451;51.960;6.250;2023-09-19T01:52:22;100649.78;;;16.62;77.80
39773;BME280;25451;51.960;6.250;2023-09-19T01:54:41;100642.00;;;16.58;77.70
39773;BME280;25451;51.960;6.250;2023-09-19T01:57:17;100652.59;;;16.56;77.74
39773;BME280;25451;51.960;6.250;2023-09-19T01:59:52;100635.38;;;16.44;77.72
39773;BME280;25451;51.960;6.250;2023-09-19T02:02:21;100640.94;;;16.49;77.76
39773;BME280;25451;51.960;6.250;2023-09-19T02:04:48;100648.50;;;16.49;77.89
39773;BME280;25451;51.960;6.250;2023-09-19T02:07:14;100641.81;;;16.40;77.65
39773;BME280;25451;51.960;6.250;2023-09-19T02:09:40;100654.59;;;16.46;77.54
39773;BME280;25451;51.960;6.250;2023-09-19T02:12:09;100661.28;;;16.50;77.80
39773;BME280;25451;51.960;6.250;2023-09-19T02:14:34;100650.16;;;16.40;77.88
39773;BME280;25451;51.960;6.250;2023-09-19T02:17:01;100659.91;;;16.42;77.87
39773;BME280;25451;51.960;6.250;2023-09-19T02:19:28;100644.94;;;16.28;77.81
39773;BME280;25451;51.960;6.250;2023-09-19T02:21:55;100665.50;;;16.37;77.87
39773;BME280;25451;51.960;6.250;2023-09-19T02:24:20;100673.28;;;16.40;77.90
39773;BME280;25451;51.960;6.250;2023-09-19T02:26:46;100658.81;;;16.33;78.01
39773;BME280;25451;51.960;6.250;2023-09-19T02:29:12;100667.72;;;16.35;77.89
39773;BME280;25451;51.960;6.250;2023-09-19T02:31:38;100642.22;;;16.18;77.78
39773;BME280;25451;51.960;6.250;2023-09-19T02:34:03;100661.91;;;16.32;77.92
39773;BME280;25451;51.960;6.250;2023-09-19T02:36:31;100663.31;;;16.29;77.79
39773;BME280;25451;51.960;6.250;2023-09-19T02:38:57;100668.03;;;16.29;77.94
39773;BME280;25451;51.960;6.250;2023-09-19T02:41:22;100663.00;;;16.31;77.92
39773;BME280;25451;51.960;6.250;2023-09-19T02:43:47;100656.66;;;16.25;77.96
39773;BME280;25451;51.960;6.250;2023-09-19T02:46:13;100644.72;;;16.20;77.95
39773;BME280;25451;51.960;6.250;2023-09-19T02:48:38;100648.34;;;16.15;77.89
39773;BME280;25451;51.960;6.250;2023-09-19T02:51:04;100665.03;;;16.20;77.80
39773;BME280;25451;51.960;6.250;2023-09-19T02:53:30;100667.81;;;16.20;77.64
39773;BME280;25451;51.960;6.250;2023-09-19T02:55:57;100673.94;;;16.17;77.81
39773;BME280;25451;51.960;6.250;2023-09-19T02:58:22;100662.59;;;16.04;77.87
39773;BME280;25451;51.960;6.250;2023-09-19T03:00:48;100674.00;;;16.07;77.75
39773;BME280;25451;51.960;6.250;2023-09-19T03:03:15;100649.03;;;15.87;77.75
39773;BME280;25451;51.960;6.250;2023-09-19T03:05:41;100691.00;;;16.06;77.73
39773;BME280;25451;51.960;6.250;2023-09-19T03:08:12;100682.38;;;15.97;77.93
39773;BME280;25451;51.960;6.250;2023-09-19T03:10:40;100681.00;;;15.95;77.75
39773;BME280;25451;51.960;6.250;2023-09-19T03:13:05;100678.50;;;15.88;77.68
39773;BME280;25451;51.960;6.250;2023-09-19T03:15:35;100656.00;;;15.74;77.60
39773;BME280;25451;51.960;6.250;2023-09-19T03:18:02;100688.25;;;15.91;77.74
39773;BME280;25451;51.960;6.250;2023-09-19T03:20:28;100694.38;;;15.93;77.79
39773;BME280;25451;51.960;6.250;2023-09-19T03:22:53;100704.13;;;15.90;77.69
39773;BME280;25451;51.960;6.250;2023-09-19T03:25:18;100686.88;;;15.78;77.57
39773;BME280;25451;51.960;6.250;2023-09-19T03:27:44;100695.78;;;15.80;77.60
39773;BME280;25451;51.960;6.250;2023-09-19T03:30:10;100685.78;;;15.74;77.65
39773;BME280;25451;51.960;6.250;2023-09-19T03:32:44;100701.63;;;15.78;77.59
39773;BME280;25451;51.960;6.250;2023-09-19T03:35:10;100688.88;;;15.67;77.53
39773;BME280;25451;51.960;6.250;2023-09-19T03:37:36;100698.88;;;15.73;77.79
39773;BME280;25451;51.960;6.250;2023-09-19T03:40:01;100704.72;;;15.72;77.39
39773;BME280;25451;51.960;6.250;2023-09-19T03:42:30;100673.88;;;15.58;77.38
39773;BME280;25451;51.960;6.250;2023-09-19T03:44:56;100686.38;;;15.66;77.33
39773;BME280;25451;51.960;6.250;2023-09-19T03:47:21;100673.59;;;15.55;77.36
39773;BME280;25451;51.960;6.250;2023-09-19T03:49:47;100677.47;;;15.54;77.41
39773;BME280;25451;51.960;6.250;2023-09-19T03:52:12;100683.88;;;15.54;77.43
39773;BME280;25451;51.960;6.250;2023-09-19T03:54:37;100694.19;;;15.54;77.05
39773;BME280;25451;51.960;6.250;2023-09-19T03:57:03;100691.13;;;15.50;77.34
39773;BME280;25451;51.960;6.250;2023-09-19T03:59:29;100668.28;;;15.33;77.36
39773;BME280;25451;51.960;6.250;2023-09-19T04:01:55;100699.22;;;15.47;77.29
39773;BME280;25451;51.960;6.250;2023-09-19T04:04:22;100697.81;;;15.44;77.30
39773;BME280;25451;51.960;6.250;2023-09-19T04:06:50;100688.06;;;15.37;77.29
39773;BME280;25451;51.960;6.250;2023-09-19T04:09:15;100680.84;;;15.31;76.99
39773;BME280;25451;51.960;6.250;2023-09-19T04:11:40;100675.84;;;15.23;77.14
39773;BME280;25451;51.960;6.250;2023-09-19T04:14:06;100671.38;;;15.22;77.14
39773;BME280;25451;51.960;6.250;2023-09-19T04:16:31;100637.47;;;15.00;77.22
39773;BME280;25451;51.960;6.250;2023-09-19T04:18:56;100684.44;;;15.21;77.13
39773;BME280;25451;51.960;6.250;2023-09-19T04:21:22;100662.50;;;15.10;77.05
39773;BME280;25451;51.960;6.250;2023-09-19T04:23:47;100680.84;;;15.16;77.32
39773;BME280;25451;51.960;6.250;2023-09-19T04:26:12;100690.31;;;15.15;77.25
39773;BME280;25451;51.960;6.250;2023-09-19T04:28:37;100684.16;;;15.08;76.99
39773;BME280;25451;51.960;6.250;2023-09-19T04:31:04;100704.47;;;15.13;76.94
39773;BME280;25451;51.960;6.250;2023-09-19T04:33:29;100700.84;;;15.08;77.07
39773;BME280;25451;51.960;6.250;2023-09-19T04:35:54;100710.84;;;15.04;77.17
39773;BME280;25451;51.960;6.250;2023-09-19T04:38:21;100714.16;;;15.01;77.05
39773;BME280;25451;51.960;6.250;2023-09-19T04:40:47;100725.88;;;14.98;77.04
39773;BME280;25451;51.960;6.250;2023-09-19T04:43:12;100732.25;;;14.98;76.94
39773;BME280;25451;51.960;6.250;2023-09-19T04:45:39;100733.63;;;14.95;76.95
39773;BME280;25451;51.960;6.250;2023-09-19T04:48:05;100736.97;;;14.87;77.01
39773;BME280;25451;51.960;6.250;2023-09-19T04:50:34;100735.84;;;14.88;76.75
39773;BME280;25451;51.960;6.250;2023-09-19T04:52:59;100747.25;;;14.92;76.74
39773;BME280;25451;51.960;6.250;2023-09-19T04:55:25;100742.81;;;14.86;76.84
39773;BME280;25451;51.960;6.250;2023-09-19T04:57:51;100746.41;;;14.81;76.51
39773;BME280;25451;51.960;6.250;2023-09-19T05:00:20;100754.44;;;14.83;76.60
39773;BME280;25451;51.960;6.250;2023-09-19T05:02:52;100768.06;;;14.84;76.71
39773;BME280;25451;51.960;6.250;2023-09-19T05:05:18;100772.81;;;14.84;76.70
39773;BME280;25451;51.960;6.250;2023-09-19T05:07:45;100775.03;;;14.82;76.70
39773;BME280;25451;51.960;6.250;2023-09-19T05:10:11;100784.47;;;14.81;76.65
39773;BME280;25451;51.960;6.250;2023-09-19T05:12:37;100758.06;;;14.73;76.63
39773;BME280;25451;51.960;6.250;2023-09-19T05:15:03;100759.72;;;14.69;76.67
39773;BME280;25451;51.960;6.250;2023-09-19T05:17:30;100778.91;;;14.76;76.56
39773;BME280;25451;51.960;6.250;2023-09-19T05:19:55;100769.72;;;14.75;76.54
39773;BME280;25451;51.960;6.250;2023-09-19T05:22:20;100755.81;;;14.70;76.50
39773;BME280;25451;51.960;6.250;2023-09-19T05:24:46;100752.50;;;14.73;76.68
39773;BME280;25451;51.960;6.250;2023-09-19T05:27:14;100752.47;;;14.68;76.59
39773;BME280;25451;51.960;6.250;2023-09-19T05:29:45;100730.50;;;14.57;76.57
39773;BME280;25451;51.960;6.250;2023-09-19T05:32:11;100752.19;;;14.65;76.68
39773;BME280;25451;51.960;6.250;2023-09-19T05:34:37;100750.25;;;14.70;76.67
39773;BME280;25451;51.960;6.250;2023-09-19T05:37:04;100753.03;;;14.70;76.67
39773;BME280;25451;51.960;6.250;2023-09-19T05:39:32;100736.88;;;14.62;76.54
39773;BME280;25451;51.960;6.250;2023-09-19T05:41:57;100739.09;;;14.60;76.58
39773;BME280;25451;51.960;6.250;2023-09-19T05:44:23;100757.47;;;14.66;76.64
39773;BME280;25451;51.960;6.250;2023-09-19T05:46:48;100745.75;;;14.54;76.48
39773;BME280;25451;51.960;6.250;2023-09-19T05:49:14;100759.69;;;14.64;76.61
39773;BME280;25451;51.960;6.250;2023-09-19T05:51:40;100759.97;;;14.63;76.43
39773;BME280;25451;51.960;6.250;2023-09-19T05:54:06;100764.66;;;14.62;76.40
39773;BME280;25451;51.960;6.250;2023-09-19T05:56:31;100773.31;;;14.66;76.64
39773;BME280;25451;51.960;6.250;2023-09-19T05:58:56;100763.00;;;14.61;76.58
39773;BME280;25451;51.960;6.250;2023-09-19T06:01:22;100769.69;;;14.65;76.45
39773;BME280;25451;51.960;6.250;2023-09-19T06:03:47;100737.09;;;14.46;76.58
39773;BME280;25451;51.960;6.250;2023-09-19T06:06:14;100771.38;;;14.71;76.55
39773;BME280;25451;51.960;6.250;2023-09-19T06:08:39;100766.34;;;14.63;76.41
39773;BME280;25451;51.960;6.250;2023-09-19T06:11:05;100758.31;;;14.62;76.55
39773;BME280;25451;51.960;6.250;2023-09-19T06:13:32;100778.34;;;14.74;76.54
39773;BME280;25451;51.960;6.250;2023-09-19T06:15:58;100762.47;;;14.64;76.64
39773;BME280;25451;51.960;6.250;2023-09-19T06:18:25;100774.16;;;14.71;76.47
39773;BME280;25451;51.960;6.250;2023-09-19T06:20:51;100793.59;;;14.76;76.62
39773;BME280;25451;51.960;6.250;2023-09-19T06:23:17;100771.34;;;14.66;76.32
39773;BME280;25451;51.960;6.250;2023-09-19T06:25:45;100770.81;;;14.69;76.56
39773;BME280;25451;51.960;6.250;2023-09-19T06:28:10;100780.84;;;14.75;76.58
39773;BME280;25451;51.960;6.250;2023-09-19T06:30:39;100769.16;;;14.73;76.56
39773;BME280;25451;51.960;6.250;2023-09-19T06:33:05;100789.72;;;14.82;76.68
39773;BME280;25451;51.960;6.250;2023-09-19T06:35:33;100780.59;;;14.82;76.61
39773;BME280;25451;51.960;6.250;2023-09-19T06:37:58;100784.19;;;14.82;76.52
39773;BME280;25451;51.960;6.250;2023-09-19T06:40:23;100802.53;;;14.88;76.61
39773;BME280;25451;51.960;6.250;2023-09-19T06:42:53;100793.06;;;14.84;76.53
39773;BME280;25451;51.960;6.250;2023-09-19T06:45:19;100798.66;;;14.89;76.66
39773;BME280;25451;51.960;6.250;2023-09-19T06:47:51;100800.63;;;14.94;76.63
39773;BME280;25451;51.960;6.250;2023-09-19T06:50:21;100812.03;;;14.98;76.63
39773;BME280;25451;51.960;6.250;2023-09-19T06:52:51;100804.81;;;15.02;76.89
39773;BME280;25451;51.960;6.250;2023-09-19T06:55:19;100797.84;;;14.99;76.61
39773;BME280;25451;51.960;6.250;2023-09-19T06:57:48;100808.41;;;15.07;76.71
39773;BME280;25451;51.960;6.250;2023-09-19T07:00:14;100790.91;;;15.02;76.68
39773;BME280;25451;51.960;6.250;2023-09-19T07:03:01;100789.25;;;15.06;76.64
39773;BME280;25451;51.960;6.250;2023-09-19T07:05:32;100799.28;;;15.17;76.66
39773;BME280;25451;51.960;6.250;2023-09-19T07:07:58;100785.09;;;15.08;76.62
39773;BME280;25451;51.960;6.250;2023-09-19T07:10:27;100801.53;;;15.25;76.81
39773;BME280;25451;51.960;6.250;2023-09-19T07:12:57;100808.75;;;15.26;76.75
39773;BME280;25451;51.960;6.250;2023-09-19T07:15:27;100803.75;;;15.33;76.63
39773;BME280;25451;51.960;6.250;2023-09-19T07:17:53;100782.34;;;15.28;76.75
39773;BME280;25451;51.960;6.250;2023-09-19T07:20:19;100804.88;;;15.42;76.70
39773;BME280;25451;51.960;6.250;2023-09-19T07:22:45;100784.28;;;15.33;76.69
39773;BME280;25451;51.960;6.250;2023-09-19T07:25:10;100808.25;;;15.49;76.68
39773;BME280;25451;51.960;6.250;2023-09-19T07:27:36;100815.78;;;15.53;76.67
39773;BME280;25451;51.960;6.250;2023-09-19T07:30:02;100794.34;;;15.49;76.67
39773;BME280;25451;51.960;6.250;2023-09-19T07:32:28;100813.25;;;15.62;76.67
39773;BME280;25451;51.960;6.250;2023-09-19T07:34:54;100774.25;;;15.42;76.57
39773;BME280;25451;51.960;6.250;2023-09-19T07:37:20;100763.72;;;15.39;76.53
39773;BME280;25451;51.960;6.250;2023-09-19T07:39:46;100823.00;;;15.74;76.66
39773;BME280;25451;51.960;6.250;2023-09-19T07:42:11;100826.59;;;15.80;76.47
39773;BME280;25451;51.960;6.250;2023-09-19T07:44:43;100809.91;;;15.80;76.43
39773;BME280;25451;51.960;6.250;2023-09-19T07:47:08;100816.28;;;15.91;76.48
39773;BME280;25451;51.960;6.250;2023-09-19T07:49:34;100813.53;;;15.86;76.26
39773;BME280;25451;51.960;6.250;2023-09-19T07:52:00;100824.38;;;16.02;76.42
39773;BME280;25451;51.960;6.250;2023-09-19T07:54:25;100802.09;;;15.97;76.32
39773;BME280;25451;51.960;6.250;2023-09-19T07:56:52;100786.50;;;15.91;76.35
39773;BME280;25451;51.960;6.250;2023-09-19T07:59:19;100780.97;;;15.96;76.27
39773;BME280;25451;51.960;6.250;2023-09-19T08:01:44;100799.84;;;16.14;76.27
39773;BME280;25451;51.960;6.250;2023-09-19T08:04:09;100800.94;;;16.18;76.16
39773;BME280;25451;51.960;6.250;2023-09-19T08:06:35;100800.06;;;16.23;76.25
39773;BME280;25451;51.960;6.250;2023-09-19T08:09:00;100831.25;;;16.45;76.06
39773;BME280;25451;51.960;6.250;2023-09-19T08:11:32;100824.53;;;16.46;76.17
39773;BME280;25451;51.960;6.250;2023-09-19T08:13:58;100819.81;;;16.46;76.03
39773;BME280;25451;51.960;6.250;2023-09-19T08:16:24;100824.78;;;16.59;75.97
39773;BME280;25451;51.960;6.250;2023-09-19T08:18:50;100824.75;;;16.70;76.01
39773;BME280;25451;51.960;6.250;2023-09-19T08:21:18;100831.69;;;16.77;75.95
39773;BME280;25451;51.960;6.250;2023-09-19T08:23:44;100820.84;;;16.76;76.04
39773;BME280;25451;51.960;6.250;2023-09-19T08:26:09;100834.41;;;16.92;75.92
39773;BME280;25451;51.960;6.250;2023-09-19T08:28:35;100839.66;;;17.04;75.72
39773;BME280;25451;51.960;6.250;2023-09-19T08:31:05;100828.47;;;17.09;75.86
39773;BME280;25451;51.960;6.250;2023-09-19T08:33:34;100839.56;;;17.19;75.81
39773;BME280;25451;51.960;6.250;2023-09-19T08:36:03;100829.78;;;17.21;75.65
39773;BME280;25451;51.960;6.250;2023-09-19T08:38:31;100838.88;;;17.37;75.65
39773;BME280;25451;51.960;6.250;2023-09-19T08:41:04;100821.06;;;17.33;75.57
39773;BME280;25451;51.960;6.250;2023-09-19T08:43:30;100822.97;;;17.42;75.52
39773;BME280;25451;51.960;6.250;2023-09-19T08:46:19;100854.31;;;17.68;75.35
39773;BME280;25451;51.960;6.250;2023-09-19T08:48:49;100840.06;;;17.70;75.36
39773;BME280;25451;51.960;6.250;2023-09-19T08:51:43;100846.66;;;17.84;75.18
39773;BME280;25451;51.960;6.250;2023-09-19T08:56:45;100845.38;;;18.00;75.04
39773;BME280;25451;51.960;6.250;2023-09-19T08:59:12;100833.41;;;17.99;75.32
39773;BME280;25451;51.960;6.250;2023-09-19T09:01:38;100817.44;;;18.05;74.67
39773;BME280;25451;51.960;6.250;2023-09-19T09:04:08;100839.91;;;18.18;75.03
39773;BME280;25451;51.960;6.250;2023-09-19T09:06:39;100843.19;;;18.26;75.01
39773;BME280;25451;51.960;6.250;2023-09-19T09:09:08;100828.88;;;18.32;74.92
39773;BME280;25451;51.960;6.250;2023-09-19T09:11:34;100831.59;;;18.37;75.07
39773;BME280;25451;51.960;6.250;2023-09-19T09:14:02;100840.94;;;18.56;74.69
39773;BME280;25451;51.960;6.250;2023-09-19T09:16:29;100831.13;;;18.59;74.62
39773;BME280;25451;51.960;6.250;2023-09-19T09:18:58;100824.34;;;18.65;74.29
39773;BME280;25451;51.960;6.250;2023-09-19T09:21:26;100833.41;;;18.75;74.32
39773;BME280;25451;51.960;6.250;2023-09-19T09:23:52;100840.34;;;18.83;74.20
39773;BME280;25451;51.960;6.250;2023-09-19T09:26:41;100828.47;;;18.91;74.06
39773;BME280;25451;51.960;6.250;2023-09-19T09:29:07;100835.69;;;18.97;74.05
39773;BME280;25451;51.960;6.250;2023-09-19T09:31:33;100822.13;;;19.04;74.00
39773;BME280;25451;51.960;6.250;2023-09-19T09:33:58;100820.94;;;19.10;73.71
39773;BME280;25451;51.960;6.250;2023-09-19T09:36:38;100837.00;;;19.23;73.77
39773;BME280;25451;51.960;6.250;2023-09-19T09:39:04;100830.19;;;19.29;73.62
39773;BME280;25451;51.960;6.250;2023-09-19T09:41:42;100824.78;;;19.38;73.51
39773;BME280;25451;51.960;6.250;2023-09-19T09:44:15;100827.63;;;19.51;73.42
39773;BME280;25451;51.960;6.250;2023-09-19T09:46:46;100822.25;;;19.55;73.30
39773;BME280;25451;51.960;6.250;2023-09-19T09:49:26;100835.28;;;19.64;73.36
39773;BME280;25451;51.960;6.250;2023-09-19T09:52:05;100822.75;;;19.75;73.14
39773;BME280;25451;51.960;6.250;2023-09-19T09:54:58;100822.81;;;19.89;73.05
39773;BME280;25451;51.960;6.250;2023-09-19T09:57:25;100841.72;;;19.97;72.87
39773;BME280;25451;51.960;6.250;2023-09-19T10:02:19;100822.66;;;20.13;72.43
39773;BME280;25451;51.960;6.250;2023-09-19T10:04:55;100799.59;;;20.16;72.23
39773;BME280;25451;51.960;6.250;2023-09-19T10:07:39;100817.09;;;20.26;72.22
39773;BME280;25451;51.960;6.250;2023-09-19T10:10:08;100808.69;;;20.26;71.68
39773;BME280;25451;51.960;6.250;2023-09-19T10:12:49;100825.63;;;20.35;71.40
39773;BME280;25451;51.960;6.250;2023-09-19T10:15:22;100827.41;;;20.44;71.19
39773;BME280;25451;51.960;6.250;2023-09-19T10:17:52;100812.16;;;20.37;70.85
39773;BME280;25451;51.960;6.250;2023-09-19T10:20:24;100824.72;;;20.53;70.66
39773;BME280;25451;51.960;6.250;2023-09-19T10:22:56;100836.66;;;20.58;70.77
39773;BME280;25451;51.960;6.250;2023-09-19T10:25:29;100818.91;;;20.63;70.41
39773;BME280;25451;51.960;6.250;2023-09-19T10:27:57;100830.16;;;20.77;70.44
39773;BME280;25451;51.960;6.250;2023-09-19T10:30:28;100824.72;;;20.80;70.38
39773;BME280;25451;51.960;6.250;2023-09-19T10:33:03;100811.94;;;20.88;70.05
39773;BME280;25451;51.960;6.250;2023-09-19T10:35:29;100805.19;;;20.89;69.76
39773;BME280;25451;51.960;6.250;2023-09-19T10:37:58;100811.91;;;21.01;69.68
39773;BME280;25451;51.960;6.250;2023-09-19T10:40:25;100782.81;;;20.97;69.48
39773;BME280;25451;51.960;6.250;2023-09-19T10:43:00;100796.97;;;21.06;69.26
39773;BME280;25451;51.960;6.250;2023-09-19T10:45:28;100792.19;;;21.06;68.89
39773;BME280;25451;51.960;6.250;2023-09-19T10:47:57;100809.97;;;21.15;68.94
39773;BME280;25451;51.960;6.250;2023-09-19T10:50:23;100813.81;;;21.19;68.92
39773;BME280;25451;51.960;6.250;2023-09-19T10:52:49;100800.88;;;21.18;69.09
39773;BME280;25451;51.960;6.250;2023-09-19T10:55:17;100811.03;;;21.28;68.77
39773;BME280;25451;51.960;6.250;2023-09-19T10:57:46;100795.19;;;21.23;68.51
39773;BME280;25451;51.960;6.250;2023-09-19T11:00:12;100805.00;;;21.34;68.48
39773;BME280;25451;51.960;6.250;2023-09-19T11:05:35;100807.56;;;21.44;67.99
39773;BME280;25451;51.960;6.250;2023-09-19T11:08:06;100816.84;;;21.45;67.66
39773;BME280;25451;51.960;6.250;2023-09-19T11:10:48;100792.50;;;21.40;67.54
39773;BME280;25451;51.960;6.250;2023-09-19T11:13:33;100796.84;;;21.46;67.40
39773;BME280;25451;51.960;6.250;2023-09-19T11:16:04;100788.13;;;21.48;67.28
39773;BME280;25451;51.960;6.250;2023-09-19T11:21:51;100790.72;;;21.67;66.39
39773;BME280;25451;51.960;6.250;2023-09-19T11:26:48;100783.03;;;21.72;66.27
39773;BME280;25451;51.960;6.250;2023-09-19T11:29:31;100779.56;;;21.75;65.92
39773;BME280;25451;51.960;6.250;2023-09-19T11:31:57;100759.06;;;21.75;65.74
39773;BME280;25451;51.960;6.250;2023-09-19T11:39:39;100741.56;;;21.78;65.63
39773;BME280;25451;51.960;6.250;2023-09-19T11:42:43;100758.88;;;21.93;65.24
39773;BME280;25451;51.960;6.250;2023-09-19T11:48:13;100765.50;;;21.97;64.88
39773;BME280;25451;51.960;6.250;2023-09-19T11:50:42;100760.13;;;22.09;64.74
39773;BME280;25451;51.960;6.250;2023-09-19T11:53:10;100758.09;;;22.01;64.38
39773;BME280;25451;51.960;6.250;2023-09-19T11:55:38;100768.88;;;22.08;64.62
39773;BME280;25451;51.960;6.250;2023-09-19T11:58:06;100759.09;;;22.05;64.14
39773;BME280;25451;51.960;6.250;2023-09-19T12:00:33;100756.44;;;22.00;64.19
39773;BME280;25451;51.960;6.250;2023-09-19T12:03:08;100755.28;;;22.01;63.89
39773;BME280;25451;51.960;6.250;2023-09-19T12:05:34;100734.59;;;21.97;63.73
39773;BME280;25451;51.960;6.250;2023-09-19T12:08:00;100741.03;;;21.98;63.91
39773;BME280;25451;51.960;6.250;2023-09-19T12:10:27;100759.31;;;22.09;63.74
39773;BME280;25451;51.960;6.250;2023-09-19T12:12:52;100751.84;;;22.04;63.72
39773;BME280;25451;51.960;6.250;2023-09-19T12:15:25;100748.34;;;21.99;63.37
39773;BME280;25451;51.960;6.250;2023-09-19T12:18:00;100757.91;;;21.98;63.36
39773;BME280;25451;51.960;6.250;2023-09-19T12:20:43;100748.97;;;21.96;62.99
39773;BME280;25451;51.960;6.250;2023-09-19T12:23:14;100739.03;;;21.90;63.12
39773;BME280;25451;51.960;6.250;2023-09-19T12:25:43;100756.28;;;21.97;63.22
39773;BME280;25451;51.960;6.250;2023-09-19T12:28:13;100750.00;;;22.00;62.89
39773;BME280;25451;51.960;6.250;2023-09-19T12:30:39;100723.16;;;21.94;62.86
39773;BME280;25451;51.960;6.250;2023-09-19T12:33:18;100739.59;;;22.00;62.72
39773;BME280;25451;51.960;6.250;2023-09-19T12:35:45;100729.44;;;21.91;62.74
39773;BME280;25451;51.960;6.250;2023-09-19T12:38:21;100740.22;;;21.97;62.66
39773;BME280;25451;51.960;6.250;2023-09-19T12:40:48;100716.16;;;21.83;62.63
39773;BME280;25451;51.960;6.250;2023-09-19T12:43:17;100730.97;;;21.97;62.45
39773;BME280;25451;51.960;6.250;2023-09-19T12:45:43;100726.09;;;21.89;62.40
39773;BME280;25451;51.960;6.250;2023-09-19T12:48:26;100719.97;;;21.87;62.06
39773;BME280;25451;51.960;6.250;2023-09-19T12:51:12;100757.22;;;21.92;61.98
39773;BME280;25451;51.960;6.250;2023-09-19T12:53:41;100745.47;;;21.90;61.95
39773;BME280;25451;51.960;6.250;2023-09-19T12:56:12;100758.19;;;21.88;61.97
39773;BME280;25451;51.960;6.250;2023-09-19T12:58:55;100745.28;;;21.87;61.84
39773;BME280;25451;51.960;6.250;2023-09-19T13:01:22;100724.31;;;21.71;61.77
39773;BME280;25451;51.960;6.250;2023-09-19T13:04:17;100735.03;;;21.82;61.56
39773;BME280;25451;51.960;6.250;2023-09-19T13:06:47;100727.44;;;21.69;61.76
39773;BME280;25451;51.960;6.250;2023-09-19T13:09:17;100666.28;;;21.35;61.58
39773;BME280;25451;51.960;6.250;2023-09-19T13:11:44;100657.28;;;21.25;61.69
39773;BME280;25451;51.960;6.250;2023-09-19T13:14:17;100741.06;;;21.76;61.49
39773;BME280;25451;51.960;6.250;2023-09-19T13:22:04;100745.41;;;21.60;61.74
39773;BME280;25451;51.960;6.250;2023-09-19T13:24:31;100735.97;;;21.56;61.64
39773;BME280;25451;51.960;6.250;2023-09-19T13:27:00;100720.19;;;21.46;61.51
39773;BME280;25451;51.960;6.250;2023-09-19T13:29:29;100688.28;;;21.20;61.39
39773;BME280;25451;51.960;6.250;2023-09-19T13:31:54;100738.88;;;21.51;61.43